Overview Statistics Trail Chart Weather Telemetry Raw packets
 

This is the latest recevied weather packets stored in our database for station/object OK2VOP-6. If no packets are shown the sender has not sent any weather packets the latest 10 day(s).

<< 17 18 19 20 21 22 23 >>
Time Temp. Humidity Pressure Rain* Wind** Luminosity Snow
1788146939 19.44° C 46% - 0 mm - - -
1788145734 20° C 45% - 0 mm - - -
1788144529 20.56° C 42% - 0 mm - - -
1788143325 20° C 41% - 0 mm - - -
1788142120 20° C 44% - 0 mm - - -
1788140915 20° C 43% - 0 mm - - -
1788139710 20.56° C 39% - 0 mm - - -
1788138505 19.44° C 48% - 0 mm - - -
1788137301 20° C 45% - 0 mm - - -
1788136096 19.44° C 46% - 0 mm - - -
1788134891 19.44° C 46% - 0 mm - - -
1788133686 19.44° C 47% - 0 mm - - -
1788132481 19.44° C 46% - 0 mm - - -
1788131276 20° C 47% - 0 mm - - -
1788130071 20° C 46% - 0 mm - - -
1788128866 20° C 45% - 0 mm - - -
1788127661 20° C 45% - 0 mm - - -
1788126456 20.56° C 45% - 0 mm - - -
1788125252 20.56° C 42% - 0 mm - - -
1788124049 21.11° C 42% - 0 mm - - -
1788122842 21.67° C 40% - 0 mm - - -
1788121637 21.67° C 42% - 0 mm - - -
1788120432 21.67° C 40% - 0 mm - - -
1788119227 22.22° C 38% - 0 mm - - -
1788118022 22.22° C 38% - 0 mm - - -

* Rain latest hour (hover to see other rain measurements)
** Current wind speed in m/s (hover to see current wind gust speed)